TUI541 EGCC-LOWW
Flight info
| Callsign | TUI541 |
|---|---|
| Flight time | N/A |
| Altitude | 37000 |
| Route | SONEX L975 DESIG L603 LAMSO DCT EVELI DCT RKN DCT KUMER DCT GALMA DCT TALEG L620 PIKIB DCT OMELO DCT EVIKU DCT BITSI DCT MIKOV MIKOV8W |
| Aircraft | B738/M-SDE2E3FGHIRWXY/LB1 |
Departure
| Time | 2026-05-01 15:25 |
|---|---|
| Airport | Manchester Airport (EGCC) |
Arrival
| Time | N/A |
|---|---|
| Airport | Vienna International Airport (LOWW) |
| Time | Latitude | Longitude | Altitude | Speed | Heading |
|---|---|---|---|---|---|
| 2026-05-01 14:59 | 53.36872 | -2.28833 | 224 ft | 0 kts | 134° |
| 2026-05-01 15:12 | 53.36872 | -2.28834 | 224 ft | 1 kts | 133° |
| 2026-05-01 15:12 | 53.36899 | -2.28855 | 224 ft | 2 kts | 178° |
| 2026-05-01 15:12 | 53.36914 | -2.28852 | 224 ft | 2 kts | 200° |
| 2026-05-01 15:13 | 53.36946 | -2.28807 | 225 ft | 0 kts | 224° |
| 2026-05-01 15:14 | 53.36947 | -2.28806 | 225 ft | 0 kts | 224° |
| 2026-05-01 15:17 | 53.36854 | -2.28959 | 225 ft | 13 kts | 225° |
| 2026-05-01 15:18 | 53.36628 | -2.28884 | 221 ft | 21 kts | 128° |
| 2026-05-01 15:18 | 53.36553 | -2.28672 | 216 ft | 21 kts | 133° |
| 2026-05-01 15:19 | 53.36288 | -2.28224 | 226 ft | 9 kts | 135° |
| 2026-05-01 15:19 | 53.36107 | -2.27924 | 237 ft | 19 kts | 136° |
| 2026-05-01 15:19 | 53.36001 | -2.27834 | 239 ft | 16 kts | 182° |
| 2026-05-01 15:20 | 53.35897 | -2.27844 | 239 ft | 4 kts | 166° |
| 2026-05-01 15:20 | 53.35813 | -2.27738 | 241 ft | 17 kts | 135° |
| 2026-05-01 15:20 | 53.35725 | -2.27638 | 243 ft | 14 kts | 159° |
| 2026-05-01 15:21 | 53.35646 | -2.27567 | 244 ft | 11 kts | 142° |
| 2026-05-01 15:21 | 53.35625 | -2.27456 | 246 ft | 15 kts | 71° |
| 2026-05-01 15:21 | 53.35725 | -2.27238 | 254 ft | 28 kts | 50° |
| 2026-05-01 15:21 | 53.35830 | -2.27014 | 264 ft | 20 kts | 57° |
| 2026-05-01 15:22 | 53.35957 | -2.26701 | 268 ft | 13 kts | 50° |
| 2026-05-01 15:22 | 53.36030 | -2.26549 | 267 ft | 23 kts | 51° |
| 2026-05-01 15:22 | 53.36129 | -2.26345 | 266 ft | 20 kts | 52° |
| 2026-05-01 15:23 | 53.36221 | -2.26196 | 261 ft | 17 kts | 50° |
| 2026-05-01 15:23 | 53.36265 | -2.26059 | 260 ft | 10 kts | 82° |
| 2026-05-01 15:23 | 53.36270 | -2.25976 | 260 ft | 16 kts | 81° |
| 2026-05-01 15:23 | 53.36240 | -2.25764 | 261 ft | 19 kts | 166° |
| 2026-05-01 15:24 | 53.36162 | -2.25860 | 262 ft | 12 kts | 232° |
| 2026-05-01 15:24 | 53.36024 | -2.26162 | 265 ft | 70 kts | 232° |
| 2026-05-01 15:24 | 53.35548 | -2.27136 | 257 ft | 144 kts | 232° |
| 2026-05-01 15:24 | 53.34812 | -2.28688 | 376 ft | 191 kts | 233° |
| 2026-05-01 15:25 | 53.33931 | -2.30457 | 1172 ft | 207 kts | 232° |
| 2026-05-01 15:25 | 53.33141 | -2.32520 | 1979 ft | 228 kts | 246° |
| 2026-05-01 15:25 | 53.32865 | -2.35184 | 2786 ft | 242 kts | 275° |
| 2026-05-01 15:25 | 53.33492 | -2.37862 | 3380 ft | 269 kts | 306° |
| 2026-05-01 15:26 | 53.34909 | -2.40093 | 4008 ft | 291 kts | 323° |
| 2026-05-01 15:26 | 53.36606 | -2.41799 | 5135 ft | 286 kts | 334° |
| 2026-05-01 15:26 | 53.38480 | -2.42928 | 6031 ft | 287 kts | 343° |
| 2026-05-01 15:26 | 53.40374 | -2.43893 | 6796 ft | 292 kts | 342° |
| 2026-05-01 15:27 | 53.42312 | -2.44940 | 7550 ft | 296 kts | 341° |
| 2026-05-01 15:27 | 53.44309 | -2.45879 | 8292 ft | 304 kts | 353° |
| 2026-05-01 15:27 | 53.46385 | -2.45512 | 9236 ft | 305 kts | 22° |
| 2026-05-01 15:28 | 53.49306 | -2.40718 | 10893 ft | 302 kts | 70° |
| 2026-05-01 15:28 | 53.49935 | -2.37403 | 11725 ft | 301 kts | 85° |
| 2026-05-01 15:28 | 53.49919 | -2.33949 | 12521 ft | 297 kts | 107° |
| 2026-05-01 15:29 | 53.48752 | -2.27351 | 14054 ft | 307 kts | 99° |
| 2026-05-01 15:29 | 53.48850 | -2.23723 | 14862 ft | 316 kts | 85° |
| 2026-05-01 15:29 | 53.49771 | -2.16390 | 16377 ft | 325 kts | 82° |
| 2026-05-01 15:30 | 53.50673 | -2.08921 | 17790 ft | 333 kts | 84° |
| 2026-05-01 15:31 | 53.52252 | -1.93363 | 20512 ft | 346 kts | 88° |
| 2026-05-01 15:31 | 53.52046 | -1.85367 | 21775 ft | 345 kts | 106° |
| 2026-05-01 15:32 | 53.50760 | -1.77444 | 22461 ft | 366 kts | 111° |
| 2026-05-01 15:32 | 53.49204 | -1.69033 | 22937 ft | 394 kts | 111° |
| 2026-05-01 15:33 | 53.46687 | -1.55202 | 23550 ft | 435 kts | 110° |
| 2026-05-01 15:34 | 53.43993 | -1.40231 | 24968 ft | 455 kts | 110° |